Time;durP1;ratioP1;P1;durP2;ratioP2;P2;SDS_P1;SDS_P2;PMS_P1;PMS_P2;Temp;Humidity;BMP_temperature;BMP_pressure;BME280_temperature;BME280_humidity;BME280_pressure;Samples;Min_cycle;Max_cycle;Signal;HPM_P1;HPM_P2
2021/09/18 00:01:49;;;;;;;10.43;9.38;;;11.40;99.90;;;;;;4997753;28;20056;-86
2021/09/18 00:04:16;;;;;;;13.55;10.90;;;11.40;99.90;;;;;;4996928;28;20046;-86
2021/09/18 00:06:44;;;;;;;10.98;9.88;;;11.40;99.90;;;;;;4996492;28;20137;-86
2021/09/18 00:09:10;;;;;;;11.85;9.50;;;11.40;99.90;;;;;;4997227;28;20070;-86
2021/09/18 00:11:37;;;;;;;13.40;10.27;;;11.30;99.90;;;;;;5014200;28;20050;-87
2021/09/18 00:14:04;;;;;;;15.00;9.75;;;11.30;99.90;;;;;;4996800;28;20052;-87
2021/09/18 00:16:31;;;;;;;22.15;11.35;;;11.30;99.90;;;;;;4996815;28;20049;-87
2021/09/18 00:18:58;;;;;;;14.32;9.85;;;11.30;99.90;;;;;;5013985;28;20064;-87
2021/09/18 00:21:25;;;;;;;16.98;12.25;;;11.40;99.90;;;;;;4996647;28;20518;-86
2021/09/18 00:23:54;;;;;;;15.48;11.93;;;11.30;99.90;;;;;;4997123;28;20533;-87
2021/09/18 00:26:21;;;;;;;17.58;11.18;;;11.40;99.90;;;;;;5013732;28;20049;-86
2021/09/18 00:28:48;;;;;;;14.02;12.23;;;11.40;99.90;;;;;;4996411;28;20558;-86
2021/09/18 00:31:15;;;;;;;12.40;10.52;;;11.50;99.90;;;;;;5013870;28;20056;-87
2021/09/18 00:33:42;;;;;;;15.00;12.27;;;11.50;99.90;;;;;;4996548;28;20155;-87
2021/09/18 00:36:08;;;;;;;15.35;11.63;;;11.50;99.90;;;;;;5007599;28;20050;-87
2021/09/18 00:38:35;;;;;;;12.43;11.20;;;11.60;99.90;;;;;;5022943;28;20061;-87
2021/09/18 00:41:02;;;;;;;15.00;11.52;;;11.50;99.90;;;;;;4996611;28;20077;-87
2021/09/18 00:43:29;;;;;;;18.23;13.20;;;11.50;99.90;;;;;;4996396;28;20476;-87
2021/09/18 00:45:56;;;;;;;14.38;11.68;;;11.50;99.90;;;;;;5013672;28;20045;-87
2021/09/18 00:48:22;;;;;;;15.15;11.15;;;11.50;99.90;;;;;;5013611;28;20513;-87
2021/09/18 00:50:49;;;;;;;13.63;12.20;;;11.50;99.90;;;;;;4996446;28;20046;-87
2021/09/18 00:53:16;;;;;;;14.75;10.18;;;11.60;99.90;;;;;;4996519;28;20112;-86
2021/09/18 00:55:43;;;;;;;18.38;12.73;;;11.60;99.90;;;;;;5013416;28;20419;-86
2021/09/18 00:58:10;;;;;;;15.95;11.45;;;11.70;99.90;;;;;;5013757;28;20054;-87
2021/09/18 01:00:37;;;;;;;13.00;10.80;;;11.70;99.90;;;;;;4996522;28;20482;-86
2021/09/18 01:03:04;;;;;;;17.63;11.30;;;11.80;99.90;;;;;;4996163;28;20050;-87
2021/09/18 01:05:32;;;;;;;11.38;10.13;;;11.80;99.90;;;;;;4996365;28;20418;-87
2021/09/18 01:08:00;;;;;;;13.25;10.70;;;11.80;99.90;;;;;;5013425;28;20081;-87
2021/09/18 01:10:27;;;;;;;13.82;10.85;;;11.80;99.90;;;;;;5013625;28;20494;-87
2021/09/18 01:13:07;;;;;;;15.90;9.65;;;11.90;99.90;;;;;;5013585;28;20546;-86
2021/09/18 01:15:36;;;;;;;14.35;11.32;;;11.90;99.90;;;;;;5013436;28;20051;-86
2021/09/18 01:18:04;;;;;;;13.73;9.85;;;11.90;99.90;;;;;;4996050;28;20070;-87
2021/09/18 01:20:33;;;;;;;14.80;11.40;;;11.90;99.90;;;;;;4996279;28;20053;-87
2021/09/18 01:23:01;;;;;;;13.02;9.55;;;11.90;99.90;;;;;;4996210;28;20054;-87
2021/09/18 01:25:31;;;;;;;11.32;10.20;;;12.00;99.90;;;;;;4996281;28;20072;-86
2021/09/18 01:27:58;;;;;;;11.82;10.43;;;11.90;99.90;;;;;;4996310;28;20387;-87
2021/09/18 01:30:28;;;;;;;10.95;9.02;;;11.90;99.90;;;;;;4996114;28;20049;-87
2021/09/18 01:32:56;;;;;;;14.05;10.27;;;11.90;99.90;;;;;;4996091;28;20088;-87
2021/09/18 01:35:24;;;;;;;10.65;8.60;;;11.90;99.90;;;;;;5013005;28;20053;-86
2021/09/18 01:37:50;;;;;;;11.15;10.10;;;11.90;99.90;;;;;;4996001;28;20064;-87
2021/09/18 01:40:23;;;;;;;10.10;9.10;;;12.00;99.90;;;;;;4995826;28;20057;-86
2021/09/18 01:42:50;;;;;;;9.52;8.60;;;12.00;99.90;;;;;;4995839;28;20046;-87
2021/09/18 01:45:18;;;;;;;10.45;9.27;;;12.00;99.90;;;;;;4995905;28;20411;-86
2021/09/18 01:47:57;;;;;;;9.82;8.95;;;12.10;99.90;;;;;;5013079;28;20479;-86
2021/09/18 01:50:31;;;;;;;12.50;8.20;;;12.10;99.90;;;;;;5016254;28;20081;-87
2021/09/18 01:53:01;;;;;;;9.93;8.32;;;12.10;99.90;;;;;;4997376;28;20081;-87
2021/09/18 01:55:28;;;;;;;10.73;7.70;;;12.20;99.90;;;;;;5029924;28;20037;-87
2021/09/18 01:57:57;;;;;;;9.13;8.10;;;12.20;99.90;;;;;;5024634;28;20523;-87
2021/09/18 02:00:25;;;;;;;8.25;7.43;;;12.20;99.90;;;;;;5016550;28;20557;-87
2021/09/18 02:02:52;;;;;;;10.93;8.05;;;12.20;99.90;;;;;;4999495;28;20131;-86
2021/09/18 02:05:23;;;;;;;8.93;7.82;;;12.20;99.90;;;;;;5016382;28;20053;-87
2021/09/18 02:07:50;;;;;;;9.65;7.70;;;12.20;99.90;;;;;;4999133;28;20081;-86
2021/09/18 02:10:20;;;;;;;9.32;7.88;;;12.10;99.90;;;;;;4999305;28;20057;-87
2021/09/18 02:12:48;;;;;;;10.20;7.65;;;12.10;99.90;;;;;;5016339;28;20045;-86
2021/09/18 02:15:18;;;;;;;10.38;7.65;;;12.10;99.90;;;;;;5016056;28;20046;-87
2021/09/18 02:17:46;;;;;;;13.85;8.10;;;12.10;99.90;;;;;;4983126;28;20133;-86
2021/09/18 02:20:20;;;;;;;8.50;7.65;;;12.10;99.90;;;;;;5016059;28;20128;-86
2021/09/18 02:22:47;;;;;;;8.57;7.70;;;12.20;99.90;;;;;;4998723;28;20486;-86
2021/09/18 02:25:15;;;;;;;12.27;8.75;;;12.10;99.90;;;;;;5015869;28;20045;-87
2021/09/18 02:27:42;;;;;;;8.85;8.05;;;12.00;99.90;;;;;;4998906;28;20057;-87
2021/09/18 02:30:13;;;;;;;11.80;8.60;;;12.10;99.90;;;;;;4999057;28;20050;-87
2021/09/18 02:32:40;;;;;;;10.48;8.52;;;12.00;99.90;;;;;;4998750;28;20054;-87
2021/09/18 02:35:10;;;;;;;9.70;8.73;;;12.00;99.90;;;;;;4998870;28;20442;-87
2021/09/18 02:37:38;;;;;;;13.80;8.82;;;12.00;99.90;;;;;;5015999;28;20096;-87
2021/09/18 02:40:07;;;;;;;8.88;7.97;;;12.00;99.90;;;;;;4998993;28;20085;-86
2021/09/18 02:42:36;;;;;;;10.65;8.32;;;12.10;99.90;;;;;;4998515;28;20058;-87
2021/09/18 02:45:07;;;;;;;8.23;6.60;;;12.10;99.90;;;;;;4998454;28;20046;-86
2021/09/18 02:47:34;;;;;;;7.65;6.90;;;12.20;99.90;;;;;;4998628;28;20085;-86
2021/09/18 02:50:01;;;;;;;11.93;7.65;;;12.10;99.90;;;;;;4998479;28;20464;-86
2021/09/18 02:52:28;;;;;;;7.88;7.18;;;12.20;99.90;;;;;;4998344;28;20041;-87
2021/09/18 02:54:54;;;;;;;8.70;7.65;;;12.10;99.90;;;;;;4998312;28;20057;-86
2021/09/18 02:57:21;;;;;;;13.10;7.13;;;12.10;99.90;;;;;;5015557;28;20046;-86
2021/09/18 02:59:48;;;;;;;9.30;7.53;;;12.10;99.90;;;;;;4998438;28;20057;-86
2021/09/18 03:02:15;;;;;;;12.18;7.20;;;12.10;99.90;;;;;;4997666;28;20080;-86
2021/09/18 03:04:42;;;;;;;7.80;7.03;;;12.10;99.90;;;;;;5015218;28;20391;-86
2021/09/18 03:07:09;;;;;;;8.10;7.32;;;12.20;99.90;;;;;;4994591;28;20086;-86
2021/09/18 03:09:36;;;;;;;8.05;7.35;;;12.20;99.90;;;;;;4995801;28;20082;-87
2021/09/18 03:12:04;;;;;;;9.45;7.78;;;12.20;99.90;;;;;;4995065;28;20081;-86
2021/09/18 03:14:30;;;;;;;7.85;7.15;;;12.20;99.90;;;;;;5007669;28;20046;-87
2021/09/18 03:16:57;;;;;;;8.10;6.70;;;12.20;99.90;;;;;;5003634;28;20491;-87
2021/09/18 03:19:24;;;;;;;13.40;8.50;;;12.20;99.90;;;;;;4995605;28;20409;-86
2021/09/18 03:21:51;;;;;;;20.45;8.35;;;12.10;99.90;;;;;;4994828;28;20081;-87
2021/09/18 03:24:18;;;;;;;9.82;7.60;;;12.20;99.90;;;;;;4994662;28;20516;-87
2021/09/18 03:26:47;;;;;;;14.00;7.32;;;12.10;99.90;;;;;;4994863;28;20056;-86
2021/09/18 03:29:14;;;;;;;8.73;6.97;;;12.20;99.90;;;;;;4994926;28;20050;-86
2021/09/18 03:31:43;;;;;;;11.80;7.88;;;12.20;99.90;;;;;;4994175;28;20495;-86
2021/09/18 03:34:10;;;;;;;7.30;6.68;;;12.20;99.90;;;;;;4994230;28;20261;-86
2021/09/18 03:36:37;;;;;;;8.10;7.40;;;12.20;99.90;;;;;;4995102;28;20054;-86
2021/09/18 03:39:04;;;;;;;10.18;6.65;;;12.20;99.90;;;;;;4994065;28;20050;-86
2021/09/18 03:41:32;;;;;;;10.20;7.13;;;12.20;99.90;;;;;;4993866;28;20096;-86
2021/09/18 03:43:58;;;;;;;7.30;6.70;;;12.20;99.90;;;;;;4995475;28;20054;-86
2021/09/18 03:46:25;;;;;;;12.32;7.43;;;12.20;99.90;;;;;;4993746;28;20050;-86
2021/09/18 03:48:52;;;;;;;9.07;7.70;;;12.10;99.90;;;;;;4995465;28;20054;-86
2021/09/18 03:51:19;;;;;;;12.82;7.28;;;12.20;99.90;;;;;;4994027;28;20113;-86
2021/09/18 03:53:45;;;;;;;9.20;7.35;;;12.10;99.90;;;;;;4994718;28;20053;-86
2021/09/18 03:56:12;;;;;;;8.75;7.13;;;12.10;99.90;;;;;;4994743;28;20055;-86
2021/09/18 03:58:39;;;;;;;10.30;6.93;;;12.10;99.90;;;;;;4993364;28;20046;-85
2021/09/18 04:01:06;;;;;;;7.60;6.90;;;12.10;99.90;;;;;;4993663;28;20077;-86
2021/09/18 04:03:33;;;;;;;7.43;6.72;;;12.10;99.90;;;;;;4993588;28;20047;-87
2021/09/18 04:06:00;;;;;;;7.80;7.07;;;12.00;99.90;;;;;;4993509;28;20104;-86
2021/09/18 04:08:27;;;;;;;9.90;7.55;;;12.00;99.90;;;;;;4993660;28;20443;-86
2021/09/18 04:10:53;;;;;;;9.80;7.43;;;12.00;99.90;;;;;;4993511;28;20081;-86
2021/09/18 04:13:21;;;;;;;9.48;7.28;;;12.00;99.90;;;;;;4994258;28;20058;-86
2021/09/18 04:15:47;;;;;;;10.15;8.07;;;12.00;99.90;;;;;;4994296;28;20054;-86
2021/09/18 04:18:14;;;;;;;8.57;7.78;;;12.00;99.90;;;;;;4993461;28;20065;-86
2021/09/18 04:20:41;;;;;;;15.82;7.75;;;12.00;99.90;;;;;;4993385;28;20057;-86
2021/09/18 04:23:08;;;;;;;9.23;7.50;;;12.00;99.90;;;;;;4993180;28;20046;-86
2021/09/18 04:25:35;;;;;;;8.98;8.07;;;12.00;99.90;;;;;;4992933;28;20419;-87
2021/09/18 04:28:01;;;;;;;9.18;7.68;;;12.00;99.90;;;;;;4994263;28;20082;-86
2021/09/18 04:30:28;;;;;;;9.80;7.22;;;11.90;99.90;;;;;;4993397;28;20046;-86
2021/09/18 04:32:55;;;;;;;10.98;8.50;;;11.90;99.90;;;;;;5001252;28;20038;-87
2021/09/18 04:35:22;;;;;;;14.57;8.05;;;11.90;99.90;;;;;;5008730;28;20435;-86
2021/09/18 04:37:49;;;;;;;10.35;8.40;;;11.90;99.90;;;;;;4993372;28;20050;-85
2021/09/18 04:40:17;;;;;;;9.07;7.03;;;11.90;99.90;;;;;;4993029;28;20050;-86
2021/09/18 04:42:44;;;;;;;10.35;7.35;;;11.80;99.90;;;;;;4992739;28;20133;-85
2021/09/18 04:45:11;;;;;;;10.88;7.55;;;11.80;99.90;;;;;;4993853;28;20058;-85
2021/09/18 04:47:38;;;;;;;9.15;7.45;;;11.80;99.90;;;;;;4993675;28;20054;-85
2021/09/18 04:50:05;;;;;;;8.70;7.80;;;11.80;99.90;;;;;;4992805;28;20047;-85
2021/09/18 04:52:32;;;;;;;9.98;7.63;;;11.80;99.90;;;;;;4994007;28;20054;-86
2021/09/18 04:54:59;;;;;;;11.10;7.65;;;11.70;99.90;;;;;;4992534;28;20132;-86
2021/09/18 04:57:26;;;;;;;13.93;8.48;;;11.70;99.90;;;;;;4993642;28;20058;-85
2021/09/18 04:59:53;;;;;;;10.90;7.88;;;11.70;99.90;;;;;;4992826;28;20050;-85
2021/09/18 05:02:20;;;;;;;15.23;8.45;;;11.70;99.90;;;;;;4993794;28;20050;-86
2021/09/18 05:04:47;;;;;;;10.13;8.32;;;11.70;99.90;;;;;;4992531;28;20443;-86
2021/09/18 05:07:14;;;;;;;15.27;8.35;;;11.70;99.90;;;;;;4999455;28;20431;-86
2021/09/18 05:09:40;;;;;;;13.75;7.97;;;11.70;99.90;;;;;;4996223;28;20448;-85
2021/09/18 05:12:07;;;;;;;9.20;7.55;;;11.80;99.90;;;;;;5013369;28;20077;-85
2021/09/18 05:14:34;;;;;;;8.75;7.80;;;11.80;99.90;;;;;;4995954;28;20054;-86
2021/09/18 05:17:01;;;;;;;9.68;8.60;;;11.90;99.90;;;;;;4995997;28;20179;-85
2021/09/18 05:19:28;;;;;;;9.88;7.88;;;11.90;99.90;;;;;;4995862;28;20089;-85
2021/09/18 05:21:55;;;;;;;10.25;8.38;;;11.80;99.90;;;;;;5013298;28;20050;-86
2021/09/18 05:24:22;;;;;;;9.27;8.05;;;11.80;99.90;;;;;;5014750;28;20062;-85
2021/09/18 05:26:49;;;;;;;13.52;8.73;;;11.70;99.90;;;;;;5017240;28;20046;-85
2021/09/18 05:29:16;;;;;;;11.70;8.95;;;11.70;99.90;;;;;;4999655;28;20088;-86
2021/09/18 05:31:43;;;;;;;12.43;8.40;;;11.80;99.90;;;;;;5017102;28;20046;-85
2021/09/18 05:34:10;;;;;;;14.73;7.68;;;11.80;99.90;;;;;;4999858;28;20510;-85
2021/09/18 05:36:37;;;;;;;11.63;7.70;;;11.80;99.90;;;;;;4999461;28;20081;-85
2021/09/18 05:39:04;;;;;;;8.52;7.57;;;11.90;99.90;;;;;;4999625;28;20089;-85
2021/09/18 05:41:30;;;;;;;9.30;7.55;;;11.90;99.90;;;;;;4999725;28;20100;-86
2021/09/18 05:43:57;;;;;;;12.05;7.60;;;11.90;99.90;;;;;;5017095;28;20119;-86
2021/09/18 05:46:24;;;;;;;8.07;6.80;;;12.00;99.90;;;;;;5002129;28;20041;-86
2021/09/18 05:48:51;;;;;;;8.10;7.30;;;12.10;99.90;;;;;;5007899;28;20052;-85
2021/09/18 05:51:18;;;;;;;8.07;7.38;;;12.20;99.90;;;;;;5001898;28;20490;-86
2021/09/18 05:53:45;;;;;;;9.52;7.07;;;12.40;99.90;;;;;;5019057;28;20042;-86
2021/09/18 05:56:12;;;;;;;10.88;6.57;;;12.50;99.90;;;;;;5000791;28;20054;-86
2021/09/18 05:58:38;;;;;;;8.82;6.80;;;12.60;99.90;;;;;;4999596;28;20081;-85
2021/09/18 06:01:05;;;;;;;6.72;6.00;;;12.80;99.90;;;;;;5016747;28;20415;-86
2021/09/18 06:03:32;;;;;;;8.77;6.05;;;12.90;99.90;;;;;;4999488;28;20529;-86
2021/09/18 06:05:59;;;;;;;6.38;5.88;;;13.00;99.90;;;;;;4999071;28;20502;-86
2021/09/18 06:08:28;;;;;;;9.88;5.20;;;13.10;99.90;;;;;;4999060;28;20060;-85
2021/09/18 06:10:54;;;;;;;6.47;5.72;;;13.20;99.90;;;;;;5016417;28;20042;-86
2021/09/18 06:13:21;;;;;;;6.10;5.50;;;13.40;99.90;;;;;;5000534;28;20217;-85
2021/09/18 06:15:48;;;;;;;8.00;5.70;;;13.50;99.90;;;;;;5008067;28;20093;-86
2021/09/18 06:18:15;;;;;;;31.60;19.98;;;13.60;99.90;;;;;;5018574;28;20054;-86
2021/09/18 06:20:42;;;;;;;24.80;15.35;;;13.70;99.90;;;;;;5016049;28;20046;-86
2021/09/18 06:23:09;;;;;;;63.30;46.78;;;13.70;99.90;;;;;;4999299;28;20054;-86
2021/09/18 06:25:35;;;;;;;16.73;12.00;;;13.60;99.90;;;;;;4999108;28;20085;-86
2021/09/18 06:28:03;;;;;;;13.30;11.25;;;13.60;99.90;;;;;;5016559;28;20050;-86
2021/09/18 06:30:29;;;;;;;25.77;14.13;;;13.60;99.90;;;;;;4999241;28;20077;-86
2021/09/18 06:32:56;;;;;;;13.05;8.32;;;13.60;99.90;;;;;;4999307;28;20050;-86
2021/09/18 06:35:23;;;;;;;12.77;7.00;;;13.60;99.90;;;;;;5014646;28;20467;-86
2021/09/18 06:37:50;;;;;;;14.82;8.57;;;13.90;99.90;;;;;;4997526;28;20081;-86
2021/09/18 06:40:19;;;;;;;12.20;7.18;;;13.90;99.90;;;;;;4997245;28;20085;-86
2021/09/18 06:42:46;;;;;;;12.35;7.60;;;13.80;99.90;;;;;;5014274;28;20092;-86
2021/09/18 06:45:14;;;;;;;14.40;7.18;;;13.90;99.90;;;;;;5013941;28;20119;-86
2021/09/18 06:47:41;;;;;;;20.38;7.88;;;14.20;99.90;;;;;;4997527;28;20549;-85
2021/09/18 06:50:09;;;;;;;20.70;8.27;;;14.30;99.90;;;;;;4998311;28;20060;-86
2021/09/18 06:52:36;;;;;;;19.90;6.88;;;14.50;99.90;;;;;;5015585;28;20500;-86
2021/09/18 06:55:05;;;;;;;24.50;7.45;;;14.80;99.90;;;;;;5015272;28;20050;-87
2021/09/18 06:57:34;;;;;;;20.63;7.65;;;15.00;99.90;;;;;;5015562;28;20082;-86
2021/09/18 07:00:03;;;;;;;14.00;8.88;;;15.30;99.90;;;;;;4998211;28;20085;-86
2021/09/18 07:02:29;;;;;;;14.15;9.70;;;15.40;99.90;;;;;;5015495;28;20041;-86
2021/09/18 07:04:57;;;;;;;13.07;9.32;;;15.40;99.90;;;;;;5015059;28;20049;-85
2021/09/18 07:07:28;;;;;;;15.65;8.52;;;15.50;99.90;;;;;;4997687;28;20054;-86
2021/09/18 07:09:55;;;;;;;10.05;7.47;;;16.00;99.90;;;;;;4998532;28;20092;-86
2021/09/18 07:12:22;;;;;;;8.25;6.88;;;16.40;99.90;;;;;;5009218;28;20049;-86
2021/09/18 07:14:49;;;;;;;6.57;5.63;;;16.60;99.90;;;;;;5007116;28;20042;-86
2021/09/18 07:17:16;;;;;;;7.20;5.90;;;16.60;99.90;;;;;;4997886;28;20054;-86
2021/09/18 07:19:43;;;;;;;7.53;5.50;;;16.60;99.90;;;;;;5014771;28;20062;-86
2021/09/18 07:22:09;;;;;;;9.15;5.10;;;16.50;99.90;;;;;;4997958;28;20050;-86
2021/09/18 07:24:36;;;;;;;5.13;4.63;;;16.50;99.90;;;;;;5015141;28;20111;-86
2021/09/18 07:27:03;;;;;;;7.95;5.10;;;16.50;99.90;;;;;;4997855;28;20061;-86
2021/09/18 07:29:30;;;;;;;7.75;5.22;;;16.40;99.90;;;;;;5014844;28;20042;-86
2021/09/18 07:32:02;;;;;;;6.45;5.63;;;16.20;99.90;;;;;;4998576;28;20046;-86
2021/09/18 07:34:29;;;;;;;6.72;5.05;;;16.20;99.90;;;;;;4997248;28;20518;-85
2021/09/18 07:36:55;;;;;;;4.47;4.07;;;16.30;99.90;;;;;;4997292;28;20503;-84
2021/09/18 07:39:22;;;;;;;3.47;3.17;;;16.60;99.90;;;;;;4997313;28;20089;-85
2021/09/18 07:41:49;;;;;;;3.17;2.78;;;17.20;99.90;;;;;;4997597;28;20104;-85
2021/09/18 07:44:16;;;;;;;3.40;2.60;;;18.40;99.90;;;;;;4997135;28;20089;-85
2021/09/18 07:46:43;;;;;;;3.45;2.67;;;18.80;99.90;;;;;;4996571;28;20495;-86
2021/09/18 07:49:10;;;;;;;5.82;2.63;;;19.10;99.90;;;;;;5014564;28;20483;-84
2021/09/18 07:51:36;;;;;;;2.53;2.40;;;18.80;99.90;;;;;;4997204;28;20050;-85
2021/09/18 07:54:03;;;;;;;2.28;2.08;;;18.60;99.90;;;;;;4997277;28;20077;-84
2021/09/18 07:56:31;;;;;;;2.35;1.83;;;18.10;99.90;;;;;;4996935;28;20463;-85
2021/09/18 07:58:58;;;;;;;2.20;2.10;;;17.90;99.90;;;;;;5013962;28;20128;-84
2021/09/18 08:01:27;;;;;;;2.83;2.60;;;17.60;99.90;;;;;;5014251;28;20053;-85
2021/09/18 08:04:03;;;;;;;3.00;1.80;;;17.80;99.90;;;;;;4997024;28;20418;-84
2021/09/18 08:06:33;;;;;;;2.55;1.83;;;18.40;99.90;;;;;;5013774;28;20545;-85
2021/09/18 08:09:05;;;;;;;3.58;1.90;;;19.60;99.90;;;;;;5014054;28;20353;-85
2021/09/18 08:11:33;;;;;;;3.63;1.40;;;21.80;99.90;;;;;;4996769;28;20082;-86
2021/09/18 08:14:02;;;;;;;3.65;1.67;;;23.20;99.90;;;;;;5014361;28;20056;-85
2021/09/18 08:16:30;;;;;;;2.75;1.33;;;22.80;99.90;;;;;;4996747;28;20050;-82
2021/09/18 08:18:57;;;;;;;2.95;1.50;;;22.70;99.90;;;;;;5013951;28;20050;-87
2021/09/18 08:21:24;;;;;;;2.17;1.30;;;21.80;99.90;;;;;;4996343;28;20046;-84
2021/09/18 08:23:51;;;;;;;5.43;1.17;;;22.30;99.50;;;;;;4995694;28;20129;-85
2021/09/18 08:26:18;;;;;;;2.53;1.10;;;21.90;99.10;;;;;;5013547;28;20453;-87
2021/09/18 08:28:45;;;;;;;0.90;0.90;;;20.80;99.90;;;;;;4996678;28;20058;-84
2021/09/18 08:31:11;;;;;;;2.17;1.00;;;20.30;99.90;;;;;;4999715;28;20053;-85
2021/09/18 08:33:40;;;;;;;0.50;0.50;;;19.60;99.90;;;;;;5011071;28;20073;-84
2021/09/18 08:36:07;;;;;;;1.02;0.93;;;20.00;99.90;;;;;;4995893;28;20522;-84
2021/09/18 08:38:33;;;;;;;1.05;0.50;;;21.80;99.90;;;;;;4995720;28;20161;-84
2021/09/18 08:41:00;;;;;;;1.83;0.70;;;22.60;99.10;;;;;;4995997;28;20054;-84
2021/09/18 08:43:27;;;;;;;0.82;0.50;;;24.10;95.90;;;;;;4995630;28;20406;-85
2021/09/18 08:45:54;;;;;;;1.02;0.82;;;24.20;91.80;;;;;;4995785;28;20124;-84
2021/09/18 08:48:26;;;;;;;0.40;0.40;;;22.60;93.10;;;;;;4996587;28;20128;-85
2021/09/18 08:50:53;;;;;;;2.35;0.80;;;21.10;95.00;;;;;;4995473;28;20061;-85
2021/09/18 08:53:21;;;;;;;0.40;0.40;;;21.00;95.90;;;;;;4995984;28;20438;-84
2021/09/18 08:55:53;;;;;;;0.63;0.43;;;21.70;97.20;;;;;;5013245;28;20136;-84
2021/09/18 08:58:20;;;;;;;0.50;0.50;;;22.30;95.20;;;;;;4995363;28;20089;-86
2021/09/18 09:00:49;;;;;;;0.60;0.50;;;21.40;96.00;;;;;;4996097;28;20058;-85
2021/09/18 09:03:41;;;;;;;0.85;0.60;;;20.80;97.40;;;;;;4995791;28;20092;-84
2021/09/18 09:06:12;;;;;;;1.40;0.70;;;20.70;99.90;;;;;;4993111;28;20396;-84
2021/09/18 09:08:43;;;;;;;1.42;0.70;;;20.40;99.90;;;;;;4995549;28;20050;-84
2021/09/18 09:11:19;;;;;;;1.08;0.52;;;20.20;99.80;;;;;;4995716;28;20054;-84
2021/09/18 09:13:58;;;;;;;1.05;0.75;;;19.70;99.90;;;;;;4996059;28;20062;-84
2021/09/18 09:16:26;;;;;;;1.65;0.70;;;19.00;99.90;;;;;;4995750;28;20046;-84
2021/09/18 09:18:53;;;;;;;2.80;0.50;;;18.70;99.90;;;;;;4995335;28;20418;-84
2021/09/18 09:21:27;;;;;;;1.83;0.80;;;18.70;99.90;;;;;;5012763;28;20140;-84
2021/09/18 09:24:11;;;;;;;2.33;0.77;;;18.50;99.90;;;;;;4995673;28;20074;-84
2021/09/18 09:27:02;;;;;;;0.57;0.47;;;18.50;99.90;;;;;;4995503;28;20064;-85
2021/09/18 09:29:46;;;;;;;0.30;0.30;;;18.60;99.90;;;;;;5012936;28;20078;-84
2021/09/18 09:32:25;;;;;;;;;;;18.60;99.90;;;;;;5013009;28;20058;-84
2021/09/18 09:34:53;;;;;;;0.30;0.30;;;18.70;99.90;;;;;;4995337;28;19927;-84
2021/09/18 09:37:21;;;;;;;0.20;0.20;;;18.80;99.90;;;;;;4995315;28;20096;-85
2021/09/18 09:39:53;;;;;;;0.10;0.10;;;19.20;99.90;;;;;;5012975;28;20423;-85
2021/09/18 09:42:29;;;;;;;0.20;0.20;;;19.20;99.90;;;;;;4995568;28;20060;-85
2021/09/18 09:45:18;;;;;;;1.30;0.13;;;19.90;99.90;;;;;;4995276;28;20425;-86
2021/09/18 09:47:47;;;;;;;0.17;0.10;;;19.80;99.90;;;;;;4995714;28;20085;-85
2021/09/18 09:50:14;;;;;;;0.38;0.10;;;19.60;99.90;;;;;;5014239;28;20057;-86
2021/09/18 09:52:42;;;;;;;0.95;0.10;;;19.30;99.90;;;;;;5030977;28;20562;-85
2021/09/18 09:55:11;;;;;;;0.00;0.00;;;19.40;99.90;;;;;;4995514;28;20060;-84
2021/09/18 09:57:40;;;;;;;0.75;0.20;;;19.30;99.90;;;;;;5012803;28;20053;-85
2021/09/18 10:00:12;;;;;;;0.38;0.10;;;19.10;99.90;;;;;;5012544;28;20140;-84
2021/09/18 10:02:40;;;;;;;0.00;0.00;;;19.40;99.90;;;;;;5012801;28;20529;-84
2021/09/18 10:05:10;;;;;;;1.67;0.20;;;19.80;99.90;;;;;;4995082;28;20057;-84
2021/09/18 10:07:38;;;;;;;0.32;0.00;;;20.00;99.90;;;;;;5012429;28;20054;-84
2021/09/18 10:10:10;;;;;;;0.10;0.10;;;20.20;99.90;;;;;;5013530;28;20057;-86
2021/09/18 10:12:39;;;;;;;1.30;0.20;;;20.10;99.90;;;;;;4999008;28;20085;-85
2021/09/18 10:15:08;;;;;;;0.10;0.10;;;20.00;99.90;;;;;;4998517;28;20071;-84
2021/09/18 10:17:40;;;;;;;0.38;0.17;;;19.90;99.90;;;;;;4998985;28;20069;-85
2021/09/18 10:23:14;;;;;;;0.20;0.15;;;19.70;99.90;;;;;;4998751;28;20046;-85
2021/09/18 10:23:14;;;;;;;0.30;0.28;;;19.90;99.90;;;;;;5015891;28;20465;-84
2021/09/18 10:25:45;;;;;;;1.08;0.20;;;19.90;99.90;;;;;;5015908;28;20053;-84
2021/09/18 10:28:16;;;;;;;0.28;0.10;;;19.80;99.90;;;;;;4997577;28;20505;-84
2021/09/18 10:30:49;;;;;;;0.15;0.15;;;19.20;99.90;;;;;;4997735;28;20053;-84
2021/09/18 10:33:38;;;;;;;0.10;0.10;;;19.20;99.90;;;;;;4998196;28;20042;-84
2021/09/18 10:36:09;;;;;;;5.53;0.55;;;19.40;99.90;;;;;;5015753;28;20056;-84
2021/09/18 10:38:47;;;;;;;0.43;0.30;;;19.60;99.90;;;;;;4998169;28;20052;-86
2021/09/18 10:41:18;;;;;;;0.20;0.20;;;19.70;99.90;;;;;;5015358;28;20054;-84
2021/09/18 10:43:56;;;;;;;1.98;1.23;;;19.50;99.90;;;;;;4997985;28;20490;-85
2021/09/18 10:46:49;;;;;;;0.40;0.40;;;19.90;99.90;;;;;;4998046;28;20140;-85
2021/09/18 10:49:34;;;;;;;0.10;0.10;;;20.10;99.90;;;;;;4998239;28;20054;-84
2021/09/18 10:52:17;;;;;;;0.10;0.10;;;21.20;99.90;;;;;;4998269;28;20050;-85
2021/09/18 10:55:08;;;;;;;0.35;0.20;;;22.00;99.90;;;;;;4998164;28;20084;-85
2021/09/18 10:57:38;;;;;;;1.95;0.30;;;21.70;98.00;;;;;;4998033;28;20050;-84
2021/09/18 11:00:07;;;;;;;1.13;0.17;;;22.40;97.80;;;;;;4998084;28;20090;-85
2021/09/18 11:02:34;;;;;;;0.73;0.35;;;23.00;94.30;;;;;;4997867;28;20045;-85
2021/09/18 11:05:10;;;;;;;1.25;0.30;;;23.30;93.80;;;;;;4997626;28;20136;-85
2021/09/18 11:07:40;;;;;;;0.10;0.10;;;24.00;93.50;;;;;;4998528;28;20053;-85
2021/09/18 11:10:36;;;;;;;0.20;0.20;;;23.90;90.60;;;;;;5004765;28;20077;-85
2021/09/18 11:13:09;;;;;;;0.85;0.20;;;23.80;91.50;;;;;;5012796;28;20077;-83
2021/09/18 11:16:00;;;;;;;0.20;0.13;;;23.60;91.80;;;;;;5038228;28;20405;-85
2021/09/18 11:18:44;;;;;;;0.10;0.10;;;23.40;91.80;;;;;;5013624;28;20077;-86
2021/09/18 11:21:11;;;;;;;0.10;0.10;;;23.30;93.60;;;;;;5016526;28;20052;-86
2021/09/18 11:23:45;;;;;;;0.30;0.20;;;22.40;91.80;;;;;;5017159;28;20088;-84
2021/09/18 11:26:41;;;;;;;0.20;0.20;;;21.70;94.20;;;;;;5017167;28;20053;-87
2021/09/18 11:29:19;;;;;;;0.40;0.30;;;21.30;94.90;;;;;;5034294;28;20053;-85
2021/09/18 11:32:04;;;;;;;0.30;0.30;;;20.70;96.70;;;;;;5034143;28;20049;-85
2021/09/18 11:34:34;;;;;;;0.22;0.20;;;20.80;98.60;;;;;;5017042;28;20075;-86
2021/09/18 11:37:03;;;;;;;0.85;0.20;;;20.90;99.10;;;;;;5009784;28;20048;-86
2021/09/18 11:39:46;;;;;;;0.17;0.17;;;21.10;99.70;;;;;;5032974;28;20049;-86
2021/09/18 11:42:29;;;;;;;0.43;0.40;;;21.00;97.70;;;;;;5034774;28;20049;-85
2021/09/18 11:45:01;;;;;;;0.30;0.10;;;20.80;99.60;;;;;;5016830;28;20156;-84
2021/09/18 11:47:32;;;;;;;0.75;0.30;;;21.10;99.90;;;;;;5034271;28;20406;-86
2021/09/18 11:50:15;;;;;;;0.65;0.30;;;21.90;96.90;;;;;;5017211;28;20510;-86
2021/09/18 11:52:42;;;;;;;0.47;0.22;;;22.80;94.40;;;;;;5015354;28;20050;-85
2021/09/18 11:55:25;;;;;;;0.10;0.10;;;23.00;94.90;;;;;;5016263;28;20051;-85
2021/09/18 11:58:08;;;;;;;0.70;0.30;;;23.20;97.10;;;;;;5016574;28;20063;-85
2021/09/18 12:00:37;;;;;;;1.10;0.20;;;23.20;95.60;;;;;;5016409;28;20133;-85
2021/09/18 12:03:04;;;;;;;1.20;0.20;;;21.60;96.00;;;;;;5016298;28;20061;-85
2021/09/18 12:05:32;;;;;;;0.20;0.20;;;21.60;97.40;;;;;;5016114;28;20049;-85
2021/09/18 12:07:59;;;;;;;0.32;0.20;;;21.30;97.50;;;;;;5016307;28;20045;-85
2021/09/18 12:10:26;;;;;;;1.17;0.32;;;20.80;98.10;;;;;;5049301;28;20136;-85
2021/09/18 12:12:58;;;;;;;0.50;0.28;;;20.70;99.90;;;;;;5016433;28;20057;-84
2021/09/18 12:15:33;;;;;;;0.85;0.25;;;20.40;99.90;;;;;;5016197;28;20549;-86
2021/09/18 12:18:02;;;;;;;0.55;0.20;;;20.30;99.90;;;;;;5016371;28;20060;-86
2021/09/18 12:20:31;;;;;;;1.17;0.30;;;20.20;99.90;;;;;;5033558;28;20053;-86
2021/09/18 12:22:58;;;;;;;0.65;0.25;;;20.00;99.90;;;;;;5016216;28;20046;-84
2021/09/18 12:25:27;;;;;;;0.20;0.20;;;20.00;99.90;;;;;;5033364;28;20512;-85
2021/09/18 12:28:02;;;;;;;0.20;0.20;;;20.50;99.90;;;;;;5034439;28;20056;-86
2021/09/18 12:30:40;;;;;;;0.13;0.10;;;21.00;99.90;;;;;;5051800;28;20029;-86
2021/09/18 12:33:10;;;;;;;0.65;0.20;;;21.00;99.90;;;;;;5017728;28;20088;-85
2021/09/18 12:35:43;;;;;;;0.88;0.30;;;21.50;99.90;;;;;;5016187;28;20049;-85
2021/09/18 12:38:12;;;;;;;0.30;0.28;;;21.70;99.90;;;;;;5016258;28;20059;-85
2021/09/18 12:40:47;;;;;;;2.85;0.35;;;21.20;99.90;;;;;;5023459;28;20046;-86
2021/09/18 12:43:20;;;;;;;2.05;0.30;;;20.70;99.90;;;;;;5010860;28;20046;-85
2021/09/18 12:46:10;;;;;;;1.10;0.20;;;20.40;99.90;;;;;;4997705;28;20054;-86
2021/09/18 12:48:39;;;;;;;0.20;0.20;;;20.20;99.90;;;;;;4997328;28;20136;-85
2021/09/18 12:51:11;;;;;;;0.30;0.22;;;20.00;99.90;;;;;;4996648;28;20045;-85
2021/09/18 12:53:49;;;;;;;9.00;5.47;;;19.90;99.90;;;;;;4996401;28;20058;-85
2021/09/18 12:56:26;;;;;;;1.60;1.50;;;19.90;99.90;;;;;;4996489;28;20050;-85